createdAt,value
2023-05-13T00:00:04.895Z,99.90
2023-05-13T00:03:26.784Z,99.90
2023-05-13T00:06:48.530Z,99.90
2023-05-13T00:10:11.856Z,99.90
2023-05-13T00:13:34.727Z,99.90
2023-05-13T00:16:56.493Z,99.90
2023-05-13T00:20:18.255Z,99.90
2023-05-13T00:23:39.637Z,99.90
2023-05-13T00:27:01.127Z,99.90
2023-05-13T00:30:23.949Z,99.90
2023-05-13T00:33:46.019Z,99.90
2023-05-13T00:37:10.045Z,99.90
2023-05-13T00:40:31.945Z,99.90
2023-05-13T00:43:56.730Z,99.90
2023-05-13T00:47:19.765Z,99.90
2023-05-13T00:50:42.184Z,99.90
2023-05-13T00:54:03.631Z,99.90
2023-05-13T00:57:24.832Z,99.90
2023-05-13T01:00:53.956Z,99.90
2023-05-13T01:04:22.019Z,99.90
2023-05-13T01:07:50.880Z,99.90
2023-05-13T01:11:16.666Z,99.90
2023-05-13T01:14:45.926Z,99.90
2023-05-13T01:18:11.540Z,99.90
2023-05-13T01:21:39.596Z,99.90
2023-05-13T01:25:01.426Z,99.90
2023-05-13T01:28:23.042Z,99.90
2023-05-13T01:31:46.523Z,99.90
2023-05-13T01:35:10.168Z,99.90
2023-05-13T01:38:33.963Z,99.90
2023-05-13T01:41:55.327Z,99.90
2023-05-13T01:45:16.621Z,99.90
2023-05-13T01:48:38.020Z,99.90
2023-05-13T01:51:59.811Z,99.90
2023-05-13T01:55:23.065Z,99.90
2023-05-13T01:58:44.340Z,99.90
2023-05-13T02:02:06.125Z,99.90
2023-05-13T02:05:27.583Z,99.90
2023-05-13T02:08:48.921Z,99.90
2023-05-13T02:12:11.601Z,99.90
2023-05-13T02:15:33.180Z,99.90
2023-05-13T02:18:54.800Z,99.90
2023-05-13T02:22:16.350Z,99.90
2023-05-13T02:25:37.616Z,99.90
2023-05-13T02:29:00.268Z,99.90
2023-05-13T02:32:22.311Z,99.90
2023-05-13T02:35:44.129Z,99.90
2023-05-13T02:39:05.787Z,99.90
2023-05-13T02:42:27.165Z,99.90
2023-05-13T02:45:49.915Z,99.90
2023-05-13T02:49:11.587Z,99.90
2023-05-13T02:52:34.116Z,99.90
2023-05-13T02:55:55.432Z,99.90
2023-05-13T02:59:16.665Z,99.90
2023-05-13T03:02:40.674Z,99.90
2023-05-13T03:06:02.253Z,99.90
2023-05-13T03:09:23.872Z,99.90
2023-05-13T03:12:45.070Z,99.90
2023-05-13T03:16:06.893Z,99.90
2023-05-13T03:19:29.706Z,99.90
2023-05-13T03:22:51.177Z,99.90
2023-05-13T03:26:12.494Z,99.90
2023-05-13T03:29:34.084Z,99.90
2023-05-13T03:32:56.305Z,99.90
2023-05-13T03:36:19.224Z,99.90
2023-05-13T03:39:40.668Z,99.90
2023-05-13T03:43:01.929Z,99.90
2023-05-13T03:46:23.629Z,99.90
2023-05-13T03:49:44.916Z,99.90
2023-05-13T03:53:08.103Z,99.90
2023-05-13T03:56:29.622Z,99.90
2023-05-13T03:59:51.057Z,99.90
2023-05-13T04:03:12.555Z,99.90
2023-05-13T04:06:34.086Z,99.90
2023-05-13T04:09:57.102Z,99.90
2023-05-13T04:13:18.504Z,99.90
2023-05-13T04:16:39.880Z,99.90
2023-05-13T04:20:01.394Z,99.90
2023-05-13T04:23:22.524Z,99.90
2023-05-13T04:26:45.375Z,99.90
2023-05-13T04:30:08.194Z,99.90
2023-05-13T04:33:29.586Z,99.90
2023-05-13T04:36:50.850Z,99.90
2023-05-13T04:40:12.873Z,99.90
2023-05-13T04:43:35.654Z,99.90
2023-05-13T04:46:56.813Z,99.90
2023-05-13T04:50:18.570Z,99.90
2023-05-13T04:53:40.479Z,99.90
2023-05-13T04:57:01.857Z,99.90
2023-05-13T05:00:25.208Z,99.90
2023-05-13T05:03:46.585Z,99.90
2023-05-13T05:07:07.921Z,99.90
2023-05-13T05:10:29.295Z,99.90
2023-05-13T05:13:50.648Z,99.90
2023-05-13T05:17:13.333Z,99.90
2023-05-13T05:20:34.676Z,99.90
2023-05-13T05:23:56.887Z,99.90
2023-05-13T05:27:19.295Z,99.90
2023-05-13T05:30:41.007Z,99.90
2023-05-13T05:34:03.624Z,99.90
2023-05-13T05:37:25.208Z,99.90
2023-05-13T05:40:46.777Z,99.90
2023-05-13T05:44:08.170Z,99.90
2023-05-13T05:47:29.703Z,99.90
2023-05-13T05:50:52.489Z,99.90
2023-05-13T05:54:13.996Z,99.90
2023-05-13T05:57:35.297Z,99.90
2023-05-13T06:00:57.018Z,99.90
2023-05-13T06:04:18.546Z,99.90
2023-05-13T06:07:41.317Z,99.90
2023-05-13T06:11:02.553Z,99.90
2023-05-13T06:14:24.197Z,99.90
2023-05-13T06:17:45.822Z,99.90
2023-05-13T06:21:07.113Z,99.90
2023-05-13T06:24:29.966Z,99.90
2023-05-13T06:27:51.448Z,99.90
2023-05-13T06:31:13.013Z,99.90
2023-05-13T06:34:34.570Z,99.90
2023-05-13T06:37:56.018Z,99.90
2023-05-13T06:41:18.902Z,99.90
2023-05-13T06:44:40.681Z,99.90
2023-05-13T06:48:02.253Z,99.90
2023-05-13T06:51:23.853Z,99.90
2023-05-13T06:54:45.192Z,99.90
2023-05-13T06:58:08.136Z,99.90
2023-05-13T07:01:29.682Z,99.90
2023-05-13T07:04:50.953Z,99.90
2023-05-13T07:08:17.648Z,99.90
2023-05-13T07:11:39.106Z,99.90
2023-05-13T07:15:01.783Z,99.90
2023-05-13T07:18:23.780Z,99.90
2023-05-13T07:21:45.369Z,99.90
2023-05-13T07:25:07.738Z,99.90
2023-05-13T07:28:29.053Z,99.90
2023-05-13T07:31:51.990Z,99.90
2023-05-13T07:35:13.358Z,99.90
2023-05-13T07:38:34.687Z,99.90
2023-05-13T07:41:56.528Z,99.90
2023-05-13T07:45:18.168Z,99.90
2023-05-13T07:48:41.068Z,99.90
2023-05-13T07:52:02.747Z,99.90
2023-05-13T07:55:24.293Z,99.90
2023-05-13T07:58:46.046Z,99.90
2023-05-13T08:02:07.963Z,99.90
2023-05-13T08:05:30.814Z,99.90
2023-05-13T08:08:52.000Z,99.90
2023-05-13T08:12:13.501Z,99.90
2023-05-13T08:15:35.115Z,99.90
2023-05-13T08:18:56.474Z,99.90
2023-05-13T08:22:19.310Z,99.90
2023-05-13T08:25:40.652Z,99.90
2023-05-13T08:29:02.089Z,99.90
2023-05-13T08:32:23.585Z,99.90
2023-05-13T08:35:45.130Z,99.90
2023-05-13T08:39:08.303Z,98.30
2023-05-13T08:42:33.034Z,98.10
2023-05-13T08:45:57.559Z,96.80
2023-05-13T08:49:18.898Z,95.60
2023-05-13T08:52:40.436Z,95.40
2023-05-13T08:56:04.206Z,95.80
2023-05-13T08:59:25.692Z,95.80
2023-05-13T09:02:47.568Z,96.10
2023-05-13T09:06:09.654Z,95.90
2023-05-13T09:09:31.032Z,95.60
2023-05-13T09:12:54.919Z,94.90
2023-05-13T09:16:16.385Z,95.10
2023-05-13T09:19:38.291Z,94.90
2023-05-13T09:23:02.402Z,94.30
2023-05-13T09:26:30.594Z,94.50
2023-05-13T09:30:01.450Z,94.70
2023-05-13T09:33:22.997Z,95.50
2023-05-13T09:36:44.343Z,95.70
2023-05-13T09:40:06.954Z,94.70
2023-05-13T09:43:29.804Z,95.90
2023-05-13T09:46:54.078Z,95.80
2023-05-13T09:50:15.360Z,95.30
2023-05-13T09:53:36.962Z,94.90
2023-05-13T09:57:01.126Z,95.50
2023-05-13T10:00:32.223Z,95.80
2023-05-13T10:03:58.821Z,95.40
2023-05-13T10:07:24.413Z,94.50
2023-05-13T10:10:46.795Z,94.10
2023-05-13T10:14:08.656Z,94.50
2023-05-13T10:17:31.141Z,94.40
2023-05-13T10:20:54.281Z,94.20
2023-05-13T10:24:15.973Z,94.00
2023-05-13T10:27:37.754Z,93.80
2023-05-13T10:30:59.205Z,93.30
2023-05-13T10:34:20.816Z,91.30
2023-05-13T10:38:04.625Z,90.20
2023-05-13T10:42:07.808Z,90.80
2023-05-13T10:45:32.858Z,91.60
2023-05-13T10:48:59.218Z,90.70
2023-05-13T10:52:21.147Z,90.00
2023-05-13T10:55:46.015Z,89.00
2023-05-13T10:59:08.036Z,89.20
2023-05-13T11:02:33.217Z,89.80
2023-05-13T11:06:04.532Z,87.80
2023-05-13T11:09:32.035Z,88.00
2023-05-13T11:13:22.838Z,84.60
2023-05-13T11:16:50.182Z,86.10
2023-05-13T11:20:12.293Z,86.20
2023-05-13T11:23:35.640Z,84.70
2023-05-13T11:26:58.989Z,84.40
2023-05-13T11:30:26.554Z,82.70
2023-05-13T11:34:06.784Z,81.80
2023-05-13T11:37:30.803Z,81.20
2023-05-13T11:40:52.821Z,79.00
2023-05-13T11:44:15.831Z,81.00
2023-05-13T11:47:38.322Z,80.90
2023-05-13T11:50:59.558Z,79.90
2023-05-13T11:54:20.768Z,80.70
2023-05-13T11:57:42.346Z,80.40
2023-05-13T12:01:03.933Z,81.30
2023-05-13T12:04:31.000Z,82.30
2023-05-13T12:07:52.953Z,80.10
2023-05-13T12:11:14.449Z,80.60
2023-05-13T12:14:36.103Z,80.30
2023-05-13T12:17:58.037Z,79.60
2023-05-13T12:21:22.478Z,81.10
2023-05-13T12:24:44.220Z,78.60
2023-05-13T12:28:19.861Z,79.70
2023-05-13T12:31:43.223Z,79.20
2023-05-13T12:35:14.196Z,78.50
2023-05-13T12:38:37.113Z,76.60
2023-05-13T12:41:58.957Z,78.00
2023-05-13T12:45:21.357Z,73.80
2023-05-13T12:48:44.642Z,63.90
2023-05-13T12:52:06.403Z,63.80
2023-05-13T12:55:29.394Z,60.60
2023-05-13T12:58:51.181Z,58.00
2023-05-13T13:02:12.858Z,55.70
2023-05-13T13:05:34.444Z,54.40
2023-05-13T13:08:55.983Z,54.20
2023-05-13T13:12:18.462Z,53.30
2023-05-13T13:15:39.911Z,54.70
2023-05-13T13:19:02.047Z,55.00
2023-05-13T13:22:23.303Z,56.70
2023-05-13T13:25:44.647Z,56.40
2023-05-13T13:29:07.623Z,56.90
2023-05-13T13:32:29.301Z,56.70
2023-05-13T13:35:51.068Z,55.80
2023-05-13T13:39:12.364Z,55.50
2023-05-13T13:42:44.289Z,56.60
2023-05-13T13:46:07.945Z,57.10
2023-05-13T13:49:29.067Z,56.90
2023-05-13T13:52:52.316Z,56.70
2023-05-13T13:56:13.988Z,56.40
2023-05-13T13:59:35.958Z,56.10
2023-05-13T14:02:58.965Z,56.70
2023-05-13T14:06:21.031Z,57.60
2023-05-13T14:09:42.542Z,58.10
2023-05-13T14:13:04.439Z,57.60
2023-05-13T14:16:26.121Z,58.00
2023-05-13T14:19:51.617Z,58.10
2023-05-13T14:23:13.146Z,57.40
2023-05-13T14:26:34.611Z,57.20
2023-05-13T14:29:56.146Z,57.20
2023-05-13T14:33:17.392Z,55.30
2023-05-13T14:36:40.227Z,55.90
2023-05-13T14:40:01.496Z,56.80
2023-05-13T14:43:22.821Z,56.00
2023-05-13T14:46:44.061Z,56.10
2023-05-13T14:50:06.384Z,56.70
2023-05-13T14:53:29.456Z,56.00
2023-05-13T14:56:52.242Z,56.20
2023-05-13T15:00:14.660Z,56.70
2023-05-13T15:03:40.063Z,55.90
2023-05-13T15:07:03.706Z,55.40
2023-05-13T15:10:26.367Z,55.60
2023-05-13T15:13:47.699Z,56.60
2023-05-13T15:17:11.682Z,56.30
2023-05-13T15:20:33.164Z,58.10
2023-05-13T15:23:54.409Z,57.00
2023-05-13T15:27:19.387Z,57.00
2023-05-13T15:30:42.523Z,57.20
2023-05-13T15:34:03.886Z,56.60
2023-05-13T15:37:25.201Z,56.30
2023-05-13T15:40:47.302Z,56.20
2023-05-13T15:44:09.992Z,56.10
2023-05-13T15:47:35.573Z,56.30
2023-05-13T15:50:58.274Z,56.20
2023-05-13T15:54:19.638Z,55.30
2023-05-13T15:57:41.382Z,55.70
2023-05-13T16:01:04.117Z,55.70
2023-05-13T16:04:25.604Z,56.50
2023-05-13T16:07:46.947Z,55.70
2023-05-13T16:11:08.516Z,56.70
2023-05-13T16:14:30.949Z,57.50
2023-05-13T16:17:53.944Z,57.10
2023-05-13T16:21:15.704Z,56.60
2023-05-13T16:24:37.510Z,56.60
2023-05-13T16:27:58.909Z,56.80
2023-05-13T16:31:20.379Z,57.10
2023-05-13T16:34:43.079Z,56.40
2023-05-13T16:38:04.631Z,56.30
2023-05-13T16:41:26.680Z,56.80
2023-05-13T16:44:48.356Z,57.10
2023-05-13T16:48:09.832Z,56.80
2023-05-13T16:51:32.882Z,56.40
2023-05-13T16:54:57.225Z,57.20
2023-05-13T16:58:20.114Z,57.20
2023-05-13T17:01:41.857Z,57.50
2023-05-13T17:05:03.977Z,56.90
2023-05-13T17:08:26.781Z,57.10
2023-05-13T17:11:48.029Z,57.00
2023-05-13T17:15:10.101Z,57.30
2023-05-13T17:18:31.491Z,57.60
2023-05-13T17:21:52.903Z,58.10
2023-05-13T17:25:15.877Z,58.50
2023-05-13T17:28:40.034Z,57.90
2023-05-13T17:32:01.779Z,58.40
2023-05-13T17:35:23.136Z,59.30
2023-05-13T17:38:44.534Z,58.80
2023-05-13T17:42:07.557Z,59.20
2023-05-13T17:45:29.286Z,58.70
2023-05-13T17:48:50.939Z,58.20
2023-05-13T17:52:12.326Z,58.20
2023-05-13T17:55:33.864Z,58.30
2023-05-13T17:58:56.649Z,59.00
2023-05-13T18:02:18.169Z,59.40
2023-05-13T18:05:39.763Z,60.00
2023-05-13T18:09:02.447Z,62.00
2023-05-13T18:12:23.771Z,63.40
2023-05-13T18:15:46.769Z,64.70
2023-05-13T18:19:08.186Z,66.70
2023-05-13T18:22:29.537Z,69.50
2023-05-13T18:25:56.005Z,71.10
2023-05-13T18:29:17.986Z,72.50
2023-05-13T18:32:40.668Z,73.40
2023-05-13T18:36:02.624Z,74.10
2023-05-13T18:39:24.118Z,74.60
2023-05-13T18:42:45.807Z,76.00
2023-05-13T18:46:07.130Z,77.00
2023-05-13T18:49:29.636Z,78.00
2023-05-13T18:52:51.440Z,78.80
2023-05-13T18:56:12.693Z,79.80
2023-05-13T18:59:33.983Z,79.60
2023-05-13T19:02:55.700Z,80.00
2023-05-13T19:06:18.588Z,81.40
2023-05-13T19:09:40.014Z,80.10
2023-05-13T19:13:01.423Z,80.90
2023-05-13T19:16:22.886Z,81.60
2023-05-13T19:19:44.401Z,81.90
2023-05-13T19:23:07.001Z,82.90
2023-05-13T19:26:28.155Z,83.40
2023-05-13T19:29:50.000Z,84.00
2023-05-13T19:33:11.563Z,84.30
2023-05-13T19:36:32.712Z,85.00
2023-05-13T19:39:55.577Z,85.80
2023-05-13T19:43:16.972Z,86.50
2023-05-13T19:46:38.629Z,87.10
2023-05-13T19:50:00.415Z,87.80
2023-05-13T19:53:22.451Z,88.70
2023-05-13T19:56:45.122Z,89.20
2023-05-13T20:00:08.276Z,90.10
2023-05-13T20:03:30.069Z,90.50
2023-05-13T20:06:51.569Z,91.20
2023-05-13T20:10:13.322Z,91.50
2023-05-13T20:13:35.925Z,91.90
2023-05-13T20:16:57.461Z,92.40
2023-05-13T20:20:19.350Z,92.60
2023-05-13T20:23:41.492Z,93.20
2023-05-13T20:27:02.905Z,93.70
2023-05-13T20:30:26.128Z,93.80
2023-05-13T20:33:47.607Z,94.60
2023-05-13T20:37:09.309Z,95.10
2023-05-13T20:40:30.672Z,95.80
2023-05-13T20:43:52.006Z,96.70
2023-05-13T20:47:15.175Z,97.50
2023-05-13T20:50:37.521Z,98.00
2023-05-13T20:53:59.012Z,98.40
2023-05-13T20:57:20.278Z,99.10
2023-05-13T21:00:41.754Z,99.90
2023-05-13T21:04:06.441Z,99.90
2023-05-13T21:07:28.069Z,99.90
2023-05-13T21:10:49.725Z,99.90
2023-05-13T21:14:11.316Z,99.90
2023-05-13T21:17:32.721Z,99.90
2023-05-13T21:20:55.671Z,99.90
2023-05-13T21:24:18.106Z,99.90
2023-05-13T21:27:39.793Z,99.90
2023-05-13T21:31:01.675Z,99.90
2023-05-13T21:34:23.184Z,99.90
2023-05-13T21:37:47.391Z,99.90
2023-05-13T21:41:09.327Z,99.90
2023-05-13T21:44:30.832Z,99.90
2023-05-13T21:47:52.054Z,99.90
2023-05-13T21:51:13.642Z,99.90
2023-05-13T21:54:36.439Z,99.90
2023-05-13T21:57:58.108Z,99.90
2023-05-13T22:01:19.419Z,99.90
2023-05-13T22:04:40.888Z,99.90
2023-05-13T22:08:02.473Z,99.90
2023-05-13T22:11:26.505Z,99.90
2023-05-13T22:14:47.964Z,99.90
2023-05-13T22:18:09.754Z,99.90
2023-05-13T22:21:32.327Z,99.90
2023-05-13T22:24:53.576Z,99.90
2023-05-13T22:28:16.575Z,99.90
2023-05-13T22:31:37.885Z,99.90
2023-05-13T22:34:59.032Z,99.90
2023-05-13T22:38:20.269Z,99.90
2023-05-13T22:41:41.489Z,99.90
2023-05-13T22:45:04.539Z,99.90
2023-05-13T22:48:26.684Z,99.90
2023-05-13T22:51:48.297Z,99.90
2023-05-13T22:55:10.517Z,99.90
2023-05-13T22:58:32.086Z,99.90
2023-05-13T23:01:55.146Z,99.90
2023-05-13T23:05:16.930Z,99.90
2023-05-13T23:08:38.383Z,99.90
2023-05-13T23:11:59.877Z,99.90
2023-05-13T23:15:21.491Z,99.90
2023-05-13T23:18:43.992Z,99.90
2023-05-13T23:22:05.293Z,99.90
2023-05-13T23:25:26.886Z,99.90
2023-05-13T23:28:48.487Z,99.90
2023-05-13T23:32:09.819Z,99.90
2023-05-13T23:35:32.585Z,99.90
2023-05-13T23:38:53.958Z,99.90
2023-05-13T23:42:15.329Z,99.90
2023-05-13T23:45:37.022Z,99.90
2023-05-13T23:48:58.665Z,99.90
2023-05-13T23:52:21.303Z,99.90
2023-05-13T23:55:42.486Z,99.90
2023-05-13T23:59:03.721Z,99.90
